Terminal Aerodrome Forecast
Issued by NWS

Home | Current Version | Previous Version | Text Only | Print | Product List | Glossary On
Versions: 1 2 3 4 5 6 7 8 9 10 11 12 13 14 15
182
FTUS43 KDLH 201725
TAFHIB
TAF
KHIB 201725Z 2018/2118 03010KT P6SM -DZ BKN010 OVC015
     FM202200 03008KT P6SM VCSH OVC015
     FM210000 01007KT P6SM OVC015
     FM210100 36006KT P6SM BKN020 OVC045
     FM210600 VRB03KT P6SM SCT020 SCT130
     FM211700 36007KT P6SM SKC=

USA.gov is the U.S. government's official web portal to all federal, state and local government web resources and services.